sensor_id;sensor_type;location;lat;lon;timestamp;P1;durP1;ratioP1;P2;durP2;ratioP2
44456;SDS011;30159;49.316;8.558;2022-12-24T00:00:39;5.43;;;1.60;;
44456;SDS011;30159;49.316;8.558;2022-12-24T00:03:05;5.70;;;1.60;;
44456;SDS011;30159;49.316;8.558;2022-12-24T00:05:32;2.27;;;1.50;;
44456;SDS011;30159;49.316;8.558;2022-12-24T00:07:58;3.23;;;1.20;;
44456;SDS011;30159;49.316;8.558;2022-12-24T00:10:25;6.87;;;1.50;;
44456;SDS011;30159;49.316;8.558;2022-12-24T00:12:51;4.97;;;1.53;;
44456;SDS011;30159;49.316;8.558;2022-12-24T00:15:19;5.10;;;1.80;;
44456;SDS011;30159;49.316;8.558;2022-12-24T00:17:46;4.87;;;1.30;;
44456;SDS011;30159;49.316;8.558;2022-12-24T00:20:12;6.80;;;1.33;;
44456;SDS011;30159;49.316;8.558;2022-12-24T00:22:39;12.33;;;1.63;;
44456;SDS011;30159;49.316;8.558;2022-12-24T00:25:05;2.50;;;1.50;;
44456;SDS011;30159;49.316;8.558;2022-12-24T00:27:32;4.83;;;1.27;;
44456;SDS011;30159;49.316;8.558;2022-12-24T00:29:59;5.10;;;1.30;;
44456;SDS011;30159;49.316;8.558;2022-12-24T00:32:26;7.97;;;1.60;;
44456;SDS011;30159;49.316;8.558;2022-12-24T00:34:53;5.33;;;1.20;;
44456;SDS011;30159;49.316;8.558;2022-12-24T00:37:19;2.50;;;1.27;;
44456;SDS011;30159;49.316;8.558;2022-12-24T00:39:46;2.87;;;1.20;;
44456;SDS011;30159;49.316;8.558;2022-12-24T00:42:12;6.53;;;1.80;;
44456;SDS011;30159;49.316;8.558;2022-12-24T00:44:39;4.27;;;1.57;;
44456;SDS011;30159;49.316;8.558;2022-12-24T00:47:05;2.80;;;1.43;;
44456;SDS011;30159;49.316;8.558;2022-12-24T00:49:33;2.67;;;1.37;;
44456;SDS011;30159;49.316;8.558;2022-12-24T00:52:00;2.57;;;1.23;;
44456;SDS011;30159;49.316;8.558;2022-12-24T00:54:27;4.00;;;1.40;;
44456;SDS011;30159;49.316;8.558;2022-12-24T00:56:54;2.37;;;1.20;;
44456;SDS011;30159;49.316;8.558;2022-12-24T00:59:20;6.60;;;1.73;;
44456;SDS011;30159;49.316;8.558;2022-12-24T01:01:47;2.37;;;1.20;;
44456;SDS011;30159;49.316;8.558;2022-12-24T01:04:13;5.37;;;1.67;;
44456;SDS011;30159;49.316;8.558;2022-12-24T01:06:59;2.60;;;1.20;;
44456;SDS011;30159;49.316;8.558;2022-12-24T01:09:26;3.50;;;1.73;;
44456;SDS011;30159;49.316;8.558;2022-12-24T01:11:52;6.37;;;1.40;;
44456;SDS011;30159;49.316;8.558;2022-12-24T01:14:19;3.73;;;1.20;;
44456;SDS011;30159;49.316;8.558;2022-12-24T01:16:45;5.43;;;1.67;;
44456;SDS011;30159;49.316;8.558;2022-12-24T01:19:12;5.70;;;1.40;;
44456;SDS011;30159;49.316;8.558;2022-12-24T01:21:38;7.33;;;1.60;;
44456;SDS011;30159;49.316;8.558;2022-12-24T01:24:08;3.73;;;2.00;;
44456;SDS011;30159;49.316;8.558;2022-12-24T01:26:38;2.83;;;1.30;;
44456;SDS011;30159;49.316;8.558;2022-12-24T01:29:05;10.03;;;1.87;;
44456;SDS011;30159;49.316;8.558;2022-12-24T01:31:31;1.73;;;1.40;;
44456;SDS011;30159;49.316;8.558;2022-12-24T01:33:58;2.80;;;1.50;;
44456;SDS011;30159;49.316;8.558;2022-12-24T01:36:24;3.20;;;1.77;;
44456;SDS011;30159;49.316;8.558;2022-12-24T01:38:51;2.90;;;1.30;;
44456;SDS011;30159;49.316;8.558;2022-12-24T01:41:20;2.03;;;1.20;;
44456;SDS011;30159;49.316;8.558;2022-12-24T01:44:15;4.93;;;1.17;;
44456;SDS011;30159;49.316;8.558;2022-12-24T01:46:46;5.40;;;1.40;;
44456;SDS011;30159;49.316;8.558;2022-12-24T01:49:15;11.73;;;1.50;;
44456;SDS011;30159;49.316;8.558;2022-12-24T01:51:43;4.20;;;1.43;;
44456;SDS011;30159;49.316;8.558;2022-12-24T01:54:14;1.60;;;1.00;;
44456;SDS011;30159;49.316;8.558;2022-12-24T01:56:45;3.43;;;1.10;;
44456;SDS011;30159;49.316;8.558;2022-12-24T01:59:14;4.80;;;1.27;;
44456;SDS011;30159;49.316;8.558;2022-12-24T02:01:43;3.73;;;1.10;;
44456;SDS011;30159;49.316;8.558;2022-12-24T02:04:12;4.70;;;1.40;;
44456;SDS011;30159;49.316;8.558;2022-12-24T02:06:45;1.43;;;1.00;;
44456;SDS011;30159;49.316;8.558;2022-12-24T02:09:12;2.53;;;1.27;;
44456;SDS011;30159;49.316;8.558;2022-12-24T02:11:39;1.83;;;1.00;;
44456;SDS011;30159;49.316;8.558;2022-12-24T02:14:10;2.93;;;1.40;;
44456;SDS011;30159;49.316;8.558;2022-12-24T02:16:40;3.27;;;1.20;;
44456;SDS011;30159;49.316;8.558;2022-12-24T02:19:18;1.97;;;1.03;;
44456;SDS011;30159;49.316;8.558;2022-12-24T02:22:03;3.00;;;1.20;;
44456;SDS011;30159;49.316;8.558;2022-12-24T02:24:42;3.93;;;1.20;;
44456;SDS011;30159;49.316;8.558;2022-12-24T02:27:36;4.23;;;1.20;;
44456;SDS011;30159;49.316;8.558;2022-12-24T02:30:21;4.70;;;1.73;;
44456;SDS011;30159;49.316;8.558;2022-12-24T02:32:56;1.43;;;1.17;;
44456;SDS011;30159;49.316;8.558;2022-12-24T02:35:37;3.00;;;1.20;;
44456;SDS011;30159;49.316;8.558;2022-12-24T02:38:12;5.10;;;1.10;;
44456;SDS011;30159;49.316;8.558;2022-12-24T02:40:44;2.10;;;1.30;;
44456;SDS011;30159;49.316;8.558;2022-12-24T02:43:16;2.73;;;1.43;;
44456;SDS011;30159;49.316;8.558;2022-12-24T02:45:52;2.40;;;1.17;;
44456;SDS011;30159;49.316;8.558;2022-12-24T02:48:21;3.83;;;1.20;;
44456;SDS011;30159;49.316;8.558;2022-12-24T02:51:01;1.50;;;1.07;;
44456;SDS011;30159;49.316;8.558;2022-12-24T02:53:30;5.83;;;1.70;;
44456;SDS011;30159;49.316;8.558;2022-12-24T02:55:59;3.50;;;1.50;;
44456;SDS011;30159;49.316;8.558;2022-12-24T02:58:38;5.63;;;1.40;;
44456;SDS011;30159;49.316;8.558;2022-12-24T03:01:15;2.67;;;0.97;;
44456;SDS011;30159;49.316;8.558;2022-12-24T03:03:57;2.20;;;1.20;;
44456;SDS011;30159;49.316;8.558;2022-12-24T03:06:30;2.20;;;1.10;;
44456;SDS011;30159;49.316;8.558;2022-12-24T03:09:05;1.60;;;1.00;;
44456;SDS011;30159;49.316;8.558;2022-12-24T03:11:38;4.63;;;1.37;;
44456;SDS011;30159;49.316;8.558;2022-12-24T03:14:09;2.90;;;1.30;;
44456;SDS011;30159;49.316;8.558;2022-12-24T03:16:37;6.40;;;1.10;;
44456;SDS011;30159;49.316;8.558;2022-12-24T03:19:03;2.87;;;1.10;;
44456;SDS011;30159;49.316;8.558;2022-12-24T03:21:31;3.60;;;1.30;;
44456;SDS011;30159;49.316;8.558;2022-12-24T03:23:59;5.57;;;1.77;;
44456;SDS011;30159;49.316;8.558;2022-12-24T03:26:27;4.70;;;1.10;;
44456;SDS011;30159;49.316;8.558;2022-12-24T03:28:56;3.20;;;1.23;;
44456;SDS011;30159;49.316;8.558;2022-12-24T03:31:22;5.33;;;1.53;;
44456;SDS011;30159;49.316;8.558;2022-12-24T03:33:51;8.07;;;1.13;;
44456;SDS011;30159;49.316;8.558;2022-12-24T03:36:17;10.93;;;2.27;;
44456;SDS011;30159;49.316;8.558;2022-12-24T03:38:44;4.70;;;1.40;;
44456;SDS011;30159;49.316;8.558;2022-12-24T03:41:10;7.50;;;1.37;;
44456;SDS011;30159;49.316;8.558;2022-12-24T03:43:37;3.73;;;1.60;;
44456;SDS011;30159;49.316;8.558;2022-12-24T03:46:04;3.53;;;1.30;;
44456;SDS011;30159;49.316;8.558;2022-12-24T03:48:32;13.97;;;1.60;;
44456;SDS011;30159;49.316;8.558;2022-12-24T03:51:01;4.00;;;1.30;;
44456;SDS011;30159;49.316;8.558;2022-12-24T03:53:28;5.07;;;1.60;;
44456;SDS011;30159;49.316;8.558;2022-12-24T03:55:55;3.50;;;1.30;;
44456;SDS011;30159;49.316;8.558;2022-12-24T03:58:21;6.00;;;1.67;;
44456;SDS011;30159;49.316;8.558;2022-12-24T04:00:48;5.67;;;1.20;;
44456;SDS011;30159;49.316;8.558;2022-12-24T04:03:14;6.87;;;1.53;;
44456;SDS011;30159;49.316;8.558;2022-12-24T04:05:41;6.90;;;1.20;;
44456;SDS011;30159;49.316;8.558;2022-12-24T04:08:08;3.90;;;1.37;;
44456;SDS011;30159;49.316;8.558;2022-12-24T04:10:35;8.13;;;1.70;;
44456;SDS011;30159;49.316;8.558;2022-12-24T04:13:01;5.30;;;1.43;;
44456;SDS011;30159;49.316;8.558;2022-12-24T04:15:28;5.00;;;1.50;;
44456;SDS011;30159;49.316;8.558;2022-12-24T04:17:55;5.03;;;1.40;;
44456;SDS011;30159;49.316;8.558;2022-12-24T04:20:21;3.10;;;1.40;;
44456;SDS011;30159;49.316;8.558;2022-12-24T04:22:47;4.70;;;1.27;;
44456;SDS011;30159;49.316;8.558;2022-12-24T04:25:15;5.77;;;1.43;;
44456;SDS011;30159;49.316;8.558;2022-12-24T04:27:42;5.17;;;1.70;;
44456;SDS011;30159;49.316;8.558;2022-12-24T04:30:09;4.00;;;1.30;;
44456;SDS011;30159;49.316;8.558;2022-12-24T04:32:35;10.63;;;2.30;;
44456;SDS011;30159;49.316;8.558;2022-12-24T04:35:02;7.47;;;1.67;;
44456;SDS011;30159;49.316;8.558;2022-12-24T04:37:29;2.30;;;1.40;;
44456;SDS011;30159;49.316;8.558;2022-12-24T04:39:55;5.13;;;1.97;;
44456;SDS011;30159;49.316;8.558;2022-12-24T04:42:23;7.80;;;1.43;;
44456;SDS011;30159;49.316;8.558;2022-12-24T04:44:49;8.33;;;1.53;;
44456;SDS011;30159;49.316;8.558;2022-12-24T04:47:16;2.00;;;1.20;;
44456;SDS011;30159;49.316;8.558;2022-12-24T04:49:42;2.67;;;1.20;;
44456;SDS011;30159;49.316;8.558;2022-12-24T04:52:09;5.30;;;1.83;;
44456;SDS011;30159;49.316;8.558;2022-12-24T04:54:35;7.70;;;1.70;;
44456;SDS011;30159;49.316;8.558;2022-12-24T04:57:02;3.60;;;1.50;;
44456;SDS011;30159;49.316;8.558;2022-12-24T04:59:30;5.03;;;1.40;;
44456;SDS011;30159;49.316;8.558;2022-12-24T05:01:57;6.93;;;1.53;;
44456;SDS011;30159;49.316;8.558;2022-12-24T05:04:23;6.60;;;1.40;;
44456;SDS011;30159;49.316;8.558;2022-12-24T05:06:50;3.40;;;1.70;;
44456;SDS011;30159;49.316;8.558;2022-12-24T05:09:16;6.60;;;1.67;;
44456;SDS011;30159;49.316;8.558;2022-12-24T05:11:43;6.17;;;2.17;;
44456;SDS011;30159;49.316;8.558;2022-12-24T05:14:09;7.73;;;2.00;;
44456;SDS011;30159;49.316;8.558;2022-12-24T05:16:37;3.57;;;1.80;;
44456;SDS011;30159;49.316;8.558;2022-12-24T05:19:04;8.63;;;1.97;;
44456;SDS011;30159;49.316;8.558;2022-12-24T05:21:30;5.60;;;1.80;;
44456;SDS011;30159;49.316;8.558;2022-12-24T05:23:57;12.67;;;2.40;;
44456;SDS011;30159;49.316;8.558;2022-12-24T05:26:42;5.93;;;1.90;;
44456;SDS011;30159;49.316;8.558;2022-12-24T05:29:11;10.00;;;1.80;;
44456;SDS011;30159;49.316;8.558;2022-12-24T05:31:39;7.67;;;2.67;;
44456;SDS011;30159;49.316;8.558;2022-12-24T05:34:07;5.27;;;1.73;;
44456;SDS011;30159;49.316;8.558;2022-12-24T05:36:34;17.47;;;3.50;;
44456;SDS011;30159;49.316;8.558;2022-12-24T05:39:01;7.53;;;2.73;;
44456;SDS011;30159;49.316;8.558;2022-12-24T05:41:28;8.83;;;2.10;;
44456;SDS011;30159;49.316;8.558;2022-12-24T05:43:54;22.07;;;2.00;;
44456;SDS011;30159;49.316;8.558;2022-12-24T05:46:21;8.53;;;1.60;;
44456;SDS011;30159;49.316;8.558;2022-12-24T05:48:51;5.67;;;2.00;;
44456;SDS011;30159;49.316;8.558;2022-12-24T05:51:19;7.83;;;2.30;;
44456;SDS011;30159;49.316;8.558;2022-12-24T05:53:47;6.90;;;2.23;;
44456;SDS011;30159;49.316;8.558;2022-12-24T05:56:16;6.20;;;1.90;;
44456;SDS011;30159;49.316;8.558;2022-12-24T05:58:45;4.40;;;1.97;;
44456;SDS011;30159;49.316;8.558;2022-12-24T06:01:12;3.73;;;1.97;;
44456;SDS011;30159;49.316;8.558;2022-12-24T06:03:39;4.47;;;2.83;;
44456;SDS011;30159;49.316;8.558;2022-12-24T06:06:08;6.00;;;1.70;;
44456;SDS011;30159;49.316;8.558;2022-12-24T06:08:36;13.07;;;1.93;;
44456;SDS011;30159;49.316;8.558;2022-12-24T06:11:05;6.07;;;1.87;;
44456;SDS011;30159;49.316;8.558;2022-12-24T06:13:33;10.73;;;2.00;;
44456;SDS011;30159;49.316;8.558;2022-12-24T06:16:00;6.33;;;2.30;;
44456;SDS011;30159;49.316;8.558;2022-12-24T06:18:28;8.63;;;2.27;;
44456;SDS011;30159;49.316;8.558;2022-12-24T06:20:56;7.33;;;1.90;;
44456;SDS011;30159;49.316;8.558;2022-12-24T06:23:25;8.23;;;2.50;;
44456;SDS011;30159;49.316;8.558;2022-12-24T06:25:52;9.20;;;2.53;;
44456;SDS011;30159;49.316;8.558;2022-12-24T06:28:21;7.30;;;1.80;;
44456;SDS011;30159;49.316;8.558;2022-12-24T06:30:48;8.00;;;3.30;;
44456;SDS011;30159;49.316;8.558;2022-12-24T06:33:16;25.03;;;6.40;;
44456;SDS011;30159;49.316;8.558;2022-12-24T06:35:43;10.73;;;4.90;;
44456;SDS011;30159;49.316;8.558;2022-12-24T06:38:10;9.37;;;3.83;;
44456;SDS011;30159;49.316;8.558;2022-12-24T06:40:39;14.33;;;5.13;;
44456;SDS011;30159;49.316;8.558;2022-12-24T06:43:06;6.30;;;2.33;;
44456;SDS011;30159;49.316;8.558;2022-12-24T06:45:32;9.83;;;2.93;;
44456;SDS011;30159;49.316;8.558;2022-12-24T06:47:59;15.40;;;3.30;;
44456;SDS011;30159;49.316;8.558;2022-12-24T06:50:25;6.40;;;2.63;;
44456;SDS011;30159;49.316;8.558;2022-12-24T06:52:52;12.07;;;2.57;;
44456;SDS011;30159;49.316;8.558;2022-12-24T06:55:18;4.90;;;2.20;;
44456;SDS011;30159;49.316;8.558;2022-12-24T06:57:46;5.80;;;2.30;;
44456;SDS011;30159;49.316;8.558;2022-12-24T07:00:13;5.43;;;1.93;;
44456;SDS011;30159;49.316;8.558;2022-12-24T07:02:40;13.90;;;2.30;;
44456;SDS011;30159;49.316;8.558;2022-12-24T07:05:08;7.07;;;2.03;;
44456;SDS011;30159;49.316;8.558;2022-12-24T07:07:36;6.00;;;2.40;;
44456;SDS011;30159;49.316;8.558;2022-12-24T07:10:03;6.60;;;2.23;;
44456;SDS011;30159;49.316;8.558;2022-12-24T07:12:30;11.17;;;2.00;;
44456;SDS011;30159;49.316;8.558;2022-12-24T07:14:58;7.90;;;1.90;;
44456;SDS011;30159;49.316;8.558;2022-12-24T07:17:25;8.60;;;1.63;;
44456;SDS011;30159;49.316;8.558;2022-12-24T07:19:51;8.30;;;1.77;;
44456;SDS011;30159;49.316;8.558;2022-12-24T07:22:18;3.80;;;2.10;;
44456;SDS011;30159;49.316;8.558;2022-12-24T07:24:44;12.93;;;2.17;;
44456;SDS011;30159;49.316;8.558;2022-12-24T07:27:11;9.80;;;2.03;;
44456;SDS011;30159;49.316;8.558;2022-12-24T07:29:38;8.83;;;2.30;;
44456;SDS011;30159;49.316;8.558;2022-12-24T07:32:06;9.07;;;2.27;;
44456;SDS011;30159;49.316;8.558;2022-12-24T07:34:33;5.17;;;1.80;;
44456;SDS011;30159;49.316;8.558;2022-12-24T07:37:00;4.50;;;1.73;;
44456;SDS011;30159;49.316;8.558;2022-12-24T07:39:27;5.17;;;2.33;;
44456;SDS011;30159;49.316;8.558;2022-12-24T07:41:53;7.73;;;2.20;;
44456;SDS011;30159;49.316;8.558;2022-12-24T07:44:20;7.43;;;2.50;;
44456;SDS011;30159;49.316;8.558;2022-12-24T07:46:46;4.93;;;2.10;;
44456;SDS011;30159;49.316;8.558;2022-12-24T07:49:14;7.80;;;2.07;;
44456;SDS011;30159;49.316;8.558;2022-12-24T07:51:41;7.87;;;2.40;;
44456;SDS011;30159;49.316;8.558;2022-12-24T07:54:10;5.90;;;2.30;;
44456;SDS011;30159;49.316;8.558;2022-12-24T07:56:36;4.97;;;1.90;;
44456;SDS011;30159;49.316;8.558;2022-12-24T07:59:03;11.63;;;2.00;;
44456;SDS011;30159;49.316;8.558;2022-12-24T08:01:29;10.73;;;2.27;;
44456;SDS011;30159;49.316;8.558;2022-12-24T08:03:56;7.60;;;2.20;;
44456;SDS011;30159;49.316;8.558;2022-12-24T08:06:24;5.67;;;1.93;;
44456;SDS011;30159;49.316;8.558;2022-12-24T08:08:50;8.03;;;2.37;;
44456;SDS011;30159;49.316;8.558;2022-12-24T08:11:17;10.45;;;2.70;;
44456;SDS011;30159;49.316;8.558;2022-12-24T08:13:43;4.37;;;1.83;;
44456;SDS011;30159;49.316;8.558;2022-12-24T08:16:10;9.70;;;2.33;;
44456;SDS011;30159;49.316;8.558;2022-12-24T08:18:36;15.47;;;3.50;;
44456;SDS011;30159;49.316;8.558;2022-12-24T08:21:05;7.80;;;2.20;;
44456;SDS011;30159;49.316;8.558;2022-12-24T08:23:34;13.13;;;2.80;;
44456;SDS011;30159;49.316;8.558;2022-12-24T08:26:00;6.53;;;2.77;;
44456;SDS011;30159;49.316;8.558;2022-12-24T08:28:27;7.80;;;2.20;;
44456;SDS011;30159;49.316;8.558;2022-12-24T08:30:54;5.43;;;2.43;;
44456;SDS011;30159;49.316;8.558;2022-12-24T08:33:21;7.87;;;2.23;;
44456;SDS011;30159;49.316;8.558;2022-12-24T08:35:47;9.30;;;2.60;;
44456;SDS011;30159;49.316;8.558;2022-12-24T08:38:14;10.90;;;2.17;;
44456;SDS011;30159;49.316;8.558;2022-12-24T08:40:43;5.17;;;2.20;;
44456;SDS011;30159;49.316;8.558;2022-12-24T08:43:11;8.00;;;2.20;;
44456;SDS011;30159;49.316;8.558;2022-12-24T08:45:37;4.43;;;2.20;;
44456;SDS011;30159;49.316;8.558;2022-12-24T08:48:05;8.83;;;2.63;;
44456;SDS011;30159;49.316;8.558;2022-12-24T08:50:32;5.67;;;2.20;;
44456;SDS011;30159;49.316;8.558;2022-12-24T08:52:58;7.97;;;2.10;;
44456;SDS011;30159;49.316;8.558;2022-12-24T08:55:25;14.60;;;2.57;;
44456;SDS011;30159;49.316;8.558;2022-12-24T08:57:53;9.90;;;2.03;;
44456;SDS011;30159;49.316;8.558;2022-12-24T09:00:20;6.30;;;2.07;;
44456;SDS011;30159;49.316;8.558;2022-12-24T09:02:46;3.77;;;2.00;;
44456;SDS011;30159;49.316;8.558;2022-12-24T09:05:13;8.80;;;2.70;;
44456;SDS011;30159;49.316;8.558;2022-12-24T09:07:39;5.70;;;1.90;;
44456;SDS011;30159;49.316;8.558;2022-12-24T09:10:06;14.23;;;2.00;;
44456;SDS011;30159;49.316;8.558;2022-12-24T09:12:34;10.47;;;2.03;;
44456;SDS011;30159;49.316;8.558;2022-12-24T09:15:02;8.43;;;1.93;;
44456;SDS011;30159;49.316;8.558;2022-12-24T09:17:31;5.13;;;1.80;;
44456;SDS011;30159;49.316;8.558;2022-12-24T09:19:58;6.00;;;2.13;;
44456;SDS011;30159;49.316;8.558;2022-12-24T09:22:25;8.70;;;1.63;;
44456;SDS011;30159;49.316;8.558;2022-12-24T09:24:52;15.27;;;2.90;;
44456;SDS011;30159;49.316;8.558;2022-12-24T09:27:19;5.73;;;1.80;;
44456;SDS011;30159;49.316;8.558;2022-12-24T09:29:45;8.13;;;1.93;;
44456;SDS011;30159;49.316;8.558;2022-12-24T09:32:13;10.30;;;1.60;;
44456;SDS011;30159;49.316;8.558;2022-12-24T09:34:39;6.47;;;1.90;;
44456;SDS011;30159;49.316;8.558;2022-12-24T09:37:06;14.07;;;2.43;;
44456;SDS011;30159;49.316;8.558;2022-12-24T09:39:33;7.90;;;1.70;;
44456;SDS011;30159;49.316;8.558;2022-12-24T09:42:01;8.73;;;1.90;;
44456;SDS011;30159;49.316;8.558;2022-12-24T09:44:37;9.33;;;2.30;;
44456;SDS011;30159;49.316;8.558;2022-12-24T09:47:10;13.77;;;2.00;;
44456;SDS011;30159;49.316;8.558;2022-12-24T09:49:48;6.33;;;1.70;;
44456;SDS011;30159;49.316;8.558;2022-12-24T09:52:21;5.40;;;1.73;;
44456;SDS011;30159;49.316;8.558;2022-12-24T09:54:54;11.23;;;1.60;;
44456;SDS011;30159;49.316;8.558;2022-12-24T09:57:27;14.30;;;2.37;;
44456;SDS011;30159;49.316;8.558;2022-12-24T09:59:59;7.70;;;1.60;;
44456;SDS011;30159;49.316;8.558;2022-12-24T10:02:29;14.87;;;2.10;;
44456;SDS011;30159;49.316;8.558;2022-12-24T10:04:57;12.40;;;2.00;;
44456;SDS011;30159;49.316;8.558;2022-12-24T10:07:28;8.73;;;2.00;;
44456;SDS011;30159;49.316;8.558;2022-12-24T10:10:05;8.50;;;1.90;;
44456;SDS011;30159;49.316;8.558;2022-12-24T10:12:44;8.30;;;2.73;;
44456;SDS011;30159;49.316;8.558;2022-12-24T10:15:18;6.33;;;2.27;;
44456;SDS011;30159;49.316;8.558;2022-12-24T10:17:58;8.47;;;2.17;;
44456;SDS011;30159;49.316;8.558;2022-12-24T10:20:35;12.03;;;2.23;;
44456;SDS011;30159;49.316;8.558;2022-12-24T10:23:10;6.90;;;2.10;;
44456;SDS011;30159;49.316;8.558;2022-12-24T10:25:43;3.50;;;1.93;;
44456;SDS011;30159;49.316;8.558;2022-12-24T10:28:19;10.37;;;2.53;;
44456;SDS011;30159;49.316;8.558;2022-12-24T10:30:50;14.00;;;2.97;;
44456;SDS011;30159;49.316;8.558;2022-12-24T10:33:25;10.60;;;2.00;;
44456;SDS011;30159;49.316;8.558;2022-12-24T10:35:57;8.10;;;1.97;;
44456;SDS011;30159;49.316;8.558;2022-12-24T10:38:24;7.20;;;1.63;;
44456;SDS011;30159;49.316;8.558;2022-12-24T10:40:51;10.40;;;1.90;;
44456;SDS011;30159;49.316;8.558;2022-12-24T10:43:21;12.23;;;2.20;;
44456;SDS011;30159;49.316;8.558;2022-12-24T10:45:49;10.90;;;2.27;;
44456;SDS011;30159;49.316;8.558;2022-12-24T10:48:20;5.90;;;2.00;;
44456;SDS011;30159;49.316;8.558;2022-12-24T10:50:53;9.90;;;3.17;;
44456;SDS011;30159;49.316;8.558;2022-12-24T10:53:26;6.83;;;2.10;;
44456;SDS011;30159;49.316;8.558;2022-12-24T10:56:01;13.40;;;2.20;;
44456;SDS011;30159;49.316;8.558;2022-12-24T10:58:30;18.93;;;3.30;;
44456;SDS011;30159;49.316;8.558;2022-12-24T11:00:57;5.70;;;1.77;;
44456;SDS011;30159;49.316;8.558;2022-12-24T11:03:27;5.67;;;2.03;;
44456;SDS011;30159;49.316;8.558;2022-12-24T11:06:07;4.87;;;1.93;;
44456;SDS011;30159;49.316;8.558;2022-12-24T11:08:36;3.90;;;1.40;;
44456;SDS011;30159;49.316;8.558;2022-12-24T11:11:05;9.93;;;2.33;;
44456;SDS011;30159;49.316;8.558;2022-12-24T11:13:35;3.30;;;1.53;;
44456;SDS011;30159;49.316;8.558;2022-12-24T11:16:04;6.13;;;1.70;;
44456;SDS011;30159;49.316;8.558;2022-12-24T11:18:33;8.20;;;1.50;;
44456;SDS011;30159;49.316;8.558;2022-12-24T11:21:02;8.67;;;1.60;;
44456;SDS011;30159;49.316;8.558;2022-12-24T11:23:31;2.00;;;1.43;;
44456;SDS011;30159;49.316;8.558;2022-12-24T11:25:58;4.67;;;1.80;;
44456;SDS011;30159;49.316;8.558;2022-12-24T11:28:25;6.33;;;1.60;;
44456;SDS011;30159;49.316;8.558;2022-12-24T11:30:55;3.50;;;1.53;;
44456;SDS011;30159;49.316;8.558;2022-12-24T11:33:27;9.33;;;1.90;;
44456;SDS011;30159;49.316;8.558;2022-12-24T11:35:56;4.60;;;1.47;;
44456;SDS011;30159;49.316;8.558;2022-12-24T11:38:31;5.13;;;1.40;;
44456;SDS011;30159;49.316;8.558;2022-12-24T11:41:00;4.43;;;1.50;;
44456;SDS011;30159;49.316;8.558;2022-12-24T11:43:33;6.77;;;1.40;;
44456;SDS011;30159;49.316;8.558;2022-12-24T11:46:19;5.90;;;1.47;;
44456;SDS011;30159;49.316;8.558;2022-12-24T11:49:05;5.13;;;1.50;;
44456;SDS011;30159;49.316;8.558;2022-12-24T11:51:39;3.70;;;1.57;;
44456;SDS011;30159;49.316;8.558;2022-12-24T11:54:14;4.60;;;1.60;;
44456;SDS011;30159;49.316;8.558;2022-12-24T11:56:45;5.67;;;2.17;;
44456;SDS011;30159;49.316;8.558;2022-12-24T11:59:16;3.63;;;2.23;;
44456;SDS011;30159;49.316;8.558;2022-12-24T12:01:50;9.83;;;1.80;;
44456;SDS011;30159;49.316;8.558;2022-12-24T12:04:23;6.77;;;1.97;;
44456;SDS011;30159;49.316;8.558;2022-12-24T12:06:54;9.27;;;2.00;;
44456;SDS011;30159;49.316;8.558;2022-12-24T12:09:26;4.10;;;1.50;;
44456;SDS011;30159;49.316;8.558;2022-12-24T12:11:56;6.27;;;2.00;;
44456;SDS011;30159;49.316;8.558;2022-12-24T12:14:28;5.63;;;1.60;;
44456;SDS011;30159;49.316;8.558;2022-12-24T12:16:59;4.00;;;1.90;;
44456;SDS011;30159;49.316;8.558;2022-12-24T12:22:22;6.30;;;2.00;;
44456;SDS011;30159;49.316;8.558;2022-12-24T12:24:56;12.00;;;3.00;;
44456;SDS011;30159;49.316;8.558;2022-12-24T12:27:27;3.20;;;2.17;;
44456;SDS011;30159;49.316;8.558;2022-12-24T12:30:00;13.53;;;3.10;;
44456;SDS011;30159;49.316;8.558;2022-12-24T12:32:37;10.90;;;2.10;;
44456;SDS011;30159;49.316;8.558;2022-12-24T12:35:13;4.87;;;1.83;;
44456;SDS011;30159;49.316;8.558;2022-12-24T12:37:53;10.00;;;2.47;;
44456;SDS011;30159;49.316;8.558;2022-12-24T12:40:25;4.80;;;2.30;;
44456;SDS011;30159;49.316;8.558;2022-12-24T12:43:04;7.53;;;2.03;;
44456;SDS011;30159;49.316;8.558;2022-12-24T12:45:38;9.83;;;1.60;;
44456;SDS011;30159;49.316;8.558;2022-12-24T12:48:21;11.23;;;2.40;;
44456;SDS011;30159;49.316;8.558;2022-12-24T12:50:58;10.50;;;1.97;;
44456;SDS011;30159;49.316;8.558;2022-12-24T12:53:33;7.60;;;1.73;;
44456;SDS011;30159;49.316;8.558;2022-12-24T12:56:11;11.63;;;1.90;;
44456;SDS011;30159;49.316;8.558;2022-12-24T12:58:48;12.17;;;2.93;;
44456;SDS011;30159;49.316;8.558;2022-12-24T13:01:21;8.67;;;1.90;;
44456;SDS011;30159;49.316;8.558;2022-12-24T13:07:05;5.60;;;2.40;;
44456;SDS011;30159;49.316;8.558;2022-12-24T13:09:59;8.50;;;1.97;;
44456;SDS011;30159;49.316;8.558;2022-12-24T13:12:50;3.50;;;1.77;;
44456;SDS011;30159;49.316;8.558;2022-12-24T13:15:34;9.20;;;2.40;;
44456;SDS011;30159;49.316;8.558;2022-12-24T13:18:23;3.97;;;1.70;;
44456;SDS011;30159;49.316;8.558;2022-12-24T13:21:12;4.80;;;1.80;;
44456;SDS011;30159;49.316;8.558;2022-12-24T13:23:41;7.23;;;1.40;;
44456;SDS011;30159;49.316;8.558;2022-12-24T13:26:09;7.47;;;1.63;;
44456;SDS011;30159;49.316;8.558;2022-12-24T13:28:38;5.87;;;1.77;;
44456;SDS011;30159;49.316;8.558;2022-12-24T13:31:22;5.47;;;1.57;;
44456;SDS011;30159;49.316;8.558;2022-12-24T13:33:56;10.17;;;2.13;;
44456;SDS011;30159;49.316;8.558;2022-12-24T13:36:24;9.63;;;1.60;;
44456;SDS011;30159;49.316;8.558;2022-12-24T13:38:51;7.67;;;2.20;;
44456;SDS011;30159;49.316;8.558;2022-12-24T13:44:28;10.40;;;1.70;;
44456;SDS011;30159;49.316;8.558;2022-12-24T13:49:45;9.20;;;1.70;;
44456;SDS011;30159;49.316;8.558;2022-12-24T13:52:17;6.73;;;1.93;;
44456;SDS011;30159;49.316;8.558;2022-12-24T13:54:49;5.37;;;2.20;;
44456;SDS011;30159;49.316;8.558;2022-12-24T13:57:31;3.03;;;1.73;;
44456;SDS011;30159;49.316;8.558;2022-12-24T14:00:06;5.57;;;2.10;;
44456;SDS011;30159;49.316;8.558;2022-12-24T14:02:51;2.50;;;1.90;;
44456;SDS011;30159;49.316;8.558;2022-12-24T14:05:22;5.60;;;2.07;;
44456;SDS011;30159;49.316;8.558;2022-12-24T14:07:55;4.40;;;1.50;;
44456;SDS011;30159;49.316;8.558;2022-12-24T14:10:24;2.80;;;1.30;;
44456;SDS011;30159;49.316;8.558;2022-12-24T14:12:56;2.13;;;1.17;;
44456;SDS011;30159;49.316;8.558;2022-12-24T14:18:26;4.00;;;1.67;;
44456;SDS011;30159;49.316;8.558;2022-12-24T14:20:55;2.10;;;1.57;;
44456;SDS011;30159;49.316;8.558;2022-12-24T14:23:28;7.30;;;1.50;;
44456;SDS011;30159;49.316;8.558;2022-12-24T14:25:59;1.90;;;1.53;;
44456;SDS011;30159;49.316;8.558;2022-12-24T14:28:29;3.53;;;1.77;;
44456;SDS011;30159;49.316;8.558;2022-12-24T14:31:02;3.63;;;1.50;;
44456;SDS011;30159;49.316;8.558;2022-12-24T14:33:30;4.33;;;2.00;;
44456;SDS011;30159;49.316;8.558;2022-12-24T14:35:58;4.37;;;1.97;;
44456;SDS011;30159;49.316;8.558;2022-12-24T14:38:25;6.30;;;1.83;;
44456;SDS011;30159;49.316;8.558;2022-12-24T14:40:55;3.00;;;1.93;;
44456;SDS011;30159;49.316;8.558;2022-12-24T14:43:33;4.63;;;1.70;;
44456;SDS011;30159;49.316;8.558;2022-12-24T14:46:14;2.77;;;2.10;;
44456;SDS011;30159;49.316;8.558;2022-12-24T14:48:50;2.17;;;1.97;;
44456;SDS011;30159;49.316;8.558;2022-12-24T14:51:20;1.90;;;1.30;;
44456;SDS011;30159;49.316;8.558;2022-12-24T14:54:03;2.90;;;1.60;;
44456;SDS011;30159;49.316;8.558;2022-12-24T14:56:43;3.03;;;1.50;;
44456;SDS011;30159;49.316;8.558;2022-12-24T14:59:16;2.10;;;1.50;;
44456;SDS011;30159;49.316;8.558;2022-12-24T15:01:45;4.43;;;1.80;;
44456;SDS011;30159;49.316;8.558;2022-12-24T15:04:16;4.23;;;1.77;;
44456;SDS011;30159;49.316;8.558;2022-12-24T15:06:44;8.03;;;1.87;;
44456;SDS011;30159;49.316;8.558;2022-12-24T15:09:14;5.73;;;2.00;;
44456;SDS011;30159;49.316;8.558;2022-12-24T15:11:44;6.00;;;1.80;;
44456;SDS011;30159;49.316;8.558;2022-12-24T15:14:12;5.03;;;2.70;;
44456;SDS011;30159;49.316;8.558;2022-12-24T15:16:40;4.80;;;3.13;;